Time;durP1;ratioP1;P1;durP2;ratioP2;P2;SDS_P1;SDS_P2;PMS_P1;PMS_P2;Temp;Humidity;BMP_temperature;BMP_pressure;BME280_temperature;BME280_humidity;BME280_pressure;Samples;Min_cycle;Max_cycle;Signal;HPM_P1;HPM_P2
2022/01/30 00:01:16;;;;;;;1.10;0.82;;;7.00;94.40;;;;;;9970494;28;20140;-70
2022/01/30 00:06:06;;;;;;;1.65;1.10;;;6.90;94.40;;;;;;9971032;28;20035;-69
2022/01/30 00:11:05;;;;;;;1.20;0.93;;;6.80;94.50;;;;;;9970409;28;20022;-69
2022/01/30 00:15:56;;;;;;;1.83;1.00;;;6.70;94.60;;;;;;9968440;28;20236;-67
2022/01/30 00:21:01;;;;;;;1.88;0.77;;;6.60;94.60;;;;;;9969357;28;20053;-71
2022/01/30 00:25:54;;;;;;;0.80;0.50;;;6.60;94.60;;;;;;9969904;28;20049;-69
2022/01/30 00:30:45;;;;;;;1.10;0.75;;;6.70;94.60;;;;;;9968344;28;20038;-70
2022/01/30 00:35:36;;;;;;;1.38;0.82;;;6.70;94.80;;;;;;9953202;28;20030;-69
2022/01/30 00:40:27;;;;;;;2.28;0.85;;;6.70;94.90;;;;;;9964946;28;20022;-70
2022/01/30 00:45:18;;;;;;;2.35;1.08;;;6.80;94.80;;;;;;9965930;28;20038;-70
2022/01/30 00:50:17;;;;;;;2.67;1.33;;;6.70;94.70;;;;;;9971210;28;20022;-67
2022/01/30 00:55:08;;;;;;;1.08;0.40;;;6.80;94.80;;;;;;9952739;28;20516;-68
2022/01/30 00:59:59;;;;;;;3.22;0.40;;;6.90;94.80;;;;;;9970447;28;20022;-66
2022/01/30 01:04:50;;;;;;;1.55;0.50;;;7.00;94.80;;;;;;9958440;28;20042;-67
2022/01/30 01:09:43;;;;;;;0.73;0.43;;;7.10;94.80;;;;;;9964699;28;20034;-66
2022/01/30 01:24:54;;;;;;;0.77;0.65;;;7.00;94.80;;;;;;9964089;28;20076;-68
2022/01/30 01:29:44;;;;;;;0.32;0.28;;;7.00;94.90;;;;;;9963799;28;20164;-65
2022/01/30 01:34:38;;;;;;;0.50;0.43;;;7.10;95.00;;;;;;9965644;28;20035;-66
2022/01/30 01:39:29;;;;;;;0.50;0.30;;;7.10;94.90;;;;;;9944068;28;20096;-68
2022/01/30 01:44:31;;;;;;;0.30;0.30;;;7.10;94.90;;;;;;9961699;28;20046;-67
2022/01/30 01:49:28;;;;;;;0.50;0.50;;;7.10;95.00;;;;;;9965794;28;20034;-65
2022/01/30 01:54:18;;;;;;;0.45;0.40;;;7.10;95.00;;;;;;9955258;28;20520;-68
2022/01/30 01:59:09;;;;;;;0.73;0.43;;;7.10;95.00;;;;;;9969047;28;20026;-69
2022/01/30 02:04:00;;;;;;;1.25;0.38;;;7.10;95.00;;;;;;9962977;28;20030;-67
2022/01/30 02:09:07;;;;;;;0.65;0.47;;;7.10;95.00;;;;;;9965630;28;20033;-65
2022/01/30 02:24:06;;;;;;;0.43;0.25;;;7.20;95.10;;;;;;9972296;28;20033;-68
2022/01/30 02:28:57;;;;;;;0.20;0.20;;;7.20;95.20;;;;;;9957928;28;20830;-71
2022/01/30 02:33:48;;;;;;;1.42;0.30;;;7.20;95.20;;;;;;9968650;28;20038;-69
2022/01/30 02:38:38;;;;;;;0.30;0.20;;;7.20;95.30;;;;;;9969770;28;20026;-68
2022/01/30 02:43:34;;;;;;;0.43;0.35;;;7.20;95.30;;;;;;9961562;28;20456;-66
2022/01/30 02:48:33;;;;;;;0.63;0.40;;;7.10;95.30;;;;;;9976158;28;20042;-65
2022/01/30 02:53:30;;;;;;;0.55;0.30;;;7.10;95.50;;;;;;9967433;28;20026;-68
2022/01/30 02:58:21;;;;;;;0.77;0.20;;;7.10;95.50;;;;;;9971939;28;20512;-70
2022/01/30 03:03:11;;;;;;;0.73;0.60;;;7.10;95.40;;;;;;9975003;28;20049;-69
2022/01/30 03:08:02;;;;;;;0.38;0.38;;;7.10;95.50;;;;;;9970662;28;20088;-67
2022/01/30 03:12:53;;;;;;;0.85;0.50;;;7.10;95.60;;;;;;9971111;28;20129;-65
2022/01/30 03:17:43;;;;;;;0.70;0.38;;;7.10;95.60;;;;;;9968926;28;20030;-71
2022/01/30 03:22:34;;;;;;;0.82;0.43;;;7.10;95.60;;;;;;9968390;28;20026;-68
2022/01/30 03:27:25;;;;;;;0.38;0.13;;;7.00;95.70;;;;;;9971975;28;20423;-69
2022/01/30 03:32:16;;;;;;;0.57;0.45;;;7.00;95.90;;;;;;9969948;28;20499;-70
2022/01/30 03:37:07;;;;;;;0.55;0.35;;;7.00;95.80;;;;;;9972218;28;20034;-69
2022/01/30 03:41:57;;;;;;;0.80;0.45;;;6.90;95.90;;;;;;9976555;28;20452;-68
2022/01/30 03:46:48;;;;;;;0.50;0.45;;;6.90;96.00;;;;;;9963189;28;20112;-70
2022/01/30 03:51:39;;;;;;;0.47;0.40;;;7.00;95.90;;;;;;9979225;28;20172;-71
2022/01/30 03:56:29;;;;;;;0.52;0.35;;;6.90;95.90;;;;;;9970284;28;20042;-70
2022/01/30 04:01:20;;;;;;;0.25;0.25;;;6.80;96.00;;;;;;9970594;28;20042;-71
2022/01/30 04:06:12;;;;;;;0.45;0.45;;;6.70;96.10;;;;;;9970855;28;20042;-69
2022/01/30 04:11:03;;;;;;;0.93;0.38;;;6.80;96.10;;;;;;9968203;28;20027;-66
2022/01/30 04:15:54;;;;;;;2.00;0.43;;;6.70;96.10;;;;;;9970083;28;20030;-71
2022/01/30 04:20:45;;;;;;;0.77;0.52;;;6.70;96.20;;;;;;9966330;28;20030;-70
2022/01/30 04:25:36;;;;;;;1.42;0.47;;;6.80;96.20;;;;;;9971247;28;20061;-68
2022/01/30 04:30:27;;;;;;;0.68;0.55;;;6.80;96.30;;;;;;9977981;28;20489;-66
2022/01/30 04:35:27;;;;;;;1.73;0.90;;;6.80;96.30;;;;;;9971422;28;20129;-70
2022/01/30 05:01:14;;;;;;;0.52;0.40;;;6.80;96.40;;;;;;9969677;28;20081;-68
2022/01/30 05:06:09;;;;;;;1.17;0.60;;;6.80;96.50;;;;;;9965951;28;20053;-71
2022/01/30 05:11:04;;;;;;;1.20;0.50;;;6.80;96.50;;;;;;9970109;28;20038;-70
2022/01/30 05:15:55;;;;;;;0.65;0.60;;;6.80;96.50;;;;;;9965032;28;20363;-69
2022/01/30 05:20:46;;;;;;;0.75;0.40;;;6.80;96.50;;;;;;9968023;28;20023;-69
2022/01/30 05:25:37;;;;;;;0.60;0.38;;;6.80;96.50;;;;;;9972966;28;20045;-69
2022/01/30 05:30:28;;;;;;;0.50;0.43;;;6.70;96.60;;;;;;9975507;28;20058;-68
2022/01/30 05:35:19;;;;;;;0.35;0.30;;;6.70;96.50;;;;;;9972034;28;20027;-70
2022/01/30 05:40:11;;;;;;;0.80;0.40;;;6.70;96.70;;;;;;9953967;28;20034;-70
2022/01/30 05:50:05;;;;;;;0.60;0.40;;;6.50;96.60;;;;;;9971343;28;20045;-66
2022/01/30 05:54:56;;;;;;;0.30;0.30;;;6.50;96.60;;;;;;9967363;28;20018;-70
2022/01/30 05:59:47;;;;;;;1.65;0.55;;;6.50;96.70;;;;;;9963798;28;20045;-69
2022/01/30 06:04:39;;;;;;;0.38;0.28;;;6.40;96.70;;;;;;9967830;28;20038;-70
2022/01/30 06:09:29;;;;;;;1.10;0.50;;;6.30;96.70;;;;;;9963768;28;20038;-69
2022/01/30 06:14:21;;;;;;;0.43;0.40;;;6.30;96.70;;;;;;9966110;28;20049;-67
2022/01/30 06:19:12;;;;;;;0.40;0.40;;;6.20;96.60;;;;;;9965268;28;20037;-68
2022/01/30 06:24:03;;;;;;;0.85;0.60;;;6.20;96.70;;;;;;9962730;28;20424;-68
2022/01/30 06:28:54;;;;;;;0.88;0.40;;;6.20;96.70;;;;;;9964585;28;20149;-66
2022/01/30 06:33:45;;;;;;;1.77;0.68;;;6.20;96.60;;;;;;9962283;28;20058;-69
2022/01/30 06:38:36;;;;;;;0.52;0.35;;;6.20;96.60;;;;;;9963832;28;20501;-66
2022/01/30 06:43:27;;;;;;;0.77;0.40;;;6.10;96.60;;;;;;9959056;28;20039;-65
2022/01/30 06:48:19;;;;;;;1.52;0.68;;;6.10;96.70;;;;;;9964564;28;20172;-65
2022/01/30 06:53:09;;;;;;;0.85;0.52;;;6.00;96.70;;;;;;9949334;28;20083;-66
2022/01/30 06:58:00;;;;;;;0.52;0.47;;;6.00;96.90;;;;;;9965042;28;20026;-64
2022/01/30 07:02:51;;;;;;;0.82;0.43;;;6.10;96.90;;;;;;9961442;28;20034;-65
2022/01/30 07:07:42;;;;;;;0.75;0.47;;;6.10;96.90;;;;;;9965977;28;20030;-65
2022/01/30 07:12:33;;;;;;;1.02;0.50;;;6.10;96.90;;;;;;9963563;28;20089;-67
2022/01/30 07:17:23;;;;;;;0.45;0.30;;;6.10;96.90;;;;;;9964748;28;20034;-69
2022/01/30 07:22:14;;;;;;;1.00;0.68;;;6.20;96.80;;;;;;9945427;28;20053;-65
2022/01/30 07:27:05;;;;;;;0.90;0.50;;;6.10;96.90;;;;;;9963915;28;20047;-64
2022/01/30 07:31:55;;;;;;;1.27;0.77;;;6.00;97.10;;;;;;9962079;28;20038;-67
2022/01/30 07:36:47;;;;;;;2.83;1.10;;;6.10;97.00;;;;;;9962754;28;20038;-66
2022/01/30 07:41:37;;;;;;;3.15;1.55;;;6.10;97.00;;;;;;9972318;28;20034;-67
2022/01/30 07:46:29;;;;;;;3.50;1.45;;;6.20;97.00;;;;;;9969827;28;20042;-66
2022/01/30 07:51:20;;;;;;;2.95;1.48;;;6.30;96.90;;;;;;9968753;28;20387;-65
2022/01/30 07:56:12;;;;;;;1.73;1.15;;;6.30;96.90;;;;;;9970189;28;20034;-68
2022/01/30 08:01:03;;;;;;;1.77;1.30;;;6.30;96.90;;;;;;9968635;28;20030;-67
2022/01/30 08:05:53;;;;;;;2.90;1.85;;;6.20;97.00;;;;;;9948958;28;20069;-68
2022/01/30 08:10:44;;;;;;;1.70;1.23;;;6.10;97.20;;;;;;9968981;28;20037;-68
2022/01/30 08:15:35;;;;;;;2.15;1.30;;;6.20;97.30;;;;;;9969345;28;20125;-66
2022/01/30 08:20:27;;;;;;;3.58;1.52;;;6.20;97.20;;;;;;9969137;28;20061;-66
2022/01/30 08:25:19;;;;;;;4.68;1.60;;;6.30;97.20;;;;;;9951865;28;20038;-66
2022/01/30 08:30:10;;;;;;;2.92;1.98;;;6.40;97.10;;;;;;9969074;28;20493;-69
2022/01/30 08:35:01;;;;;;;2.30;1.63;;;6.40;97.20;;;;;;9965002;28;20030;-67
2022/01/30 08:39:51;;;;;;;4.35;2.08;;;6.40;97.00;;;;;;9967351;28;20039;-70
2022/01/30 08:44:42;;;;;;;2.88;2.05;;;6.40;97.00;;;;;;9966900;28;20262;-65
2022/01/30 08:49:33;;;;;;;3.17;1.90;;;6.50;96.90;;;;;;9968936;28;20049;-65
2022/01/30 08:54:23;;;;;;;4.05;2.28;;;6.50;96.80;;;;;;9967877;28;20037;-64
2022/01/30 08:59:14;;;;;;;3.40;2.30;;;6.50;96.80;;;;;;9967838;28;20336;-68
2022/01/30 09:04:05;;;;;;;6.70;2.65;;;6.60;96.80;;;;;;9966804;28;20393;-69
2022/01/30 09:08:55;;;;;;;5.03;2.50;;;6.50;96.90;;;;;;9967260;28;20042;-71
2022/01/30 09:13:46;;;;;;;5.97;2.30;;;6.60;96.90;;;;;;9968291;28;20022;-69
2022/01/30 09:18:38;;;;;;;8.13;2.70;;;6.60;96.80;;;;;;9969543;28;20054;-66
2022/01/30 09:23:29;;;;;;;8.48;2.80;;;6.70;96.80;;;;;;9966782;28;20057;-69
2022/01/30 09:28:19;;;;;;;12.93;4.30;;;6.70;96.60;;;;;;9963894;28;20097;-67
2022/01/30 09:33:11;;;;;;;9.05;3.97;;;6.80;96.60;;;;;;9967944;28;20030;-66
2022/01/30 09:38:01;;;;;;;6.93;3.65;;;7.00;96.60;;;;;;9968318;28;20481;-65
2022/01/30 09:42:52;;;;;;;7.57;2.75;;;7.10;96.50;;;;;;9934676;28;20030;-67
2022/01/30 09:47:45;;;;;;;4.63;2.25;;;7.10;96.50;;;;;;9966976;28;20042;-68
2022/01/30 09:52:37;;;;;;;9.75;3.08;;;7.20;96.30;;;;;;9966809;28;20033;-66
2022/01/30 09:57:28;;;;;;;6.70;3.10;;;7.40;96.20;;;;;;9967688;28;20035;-64
2022/01/30 10:02:20;;;;;;;3.67;1.45;;;7.50;96.00;;;;;;9952642;28;20045;-69
2022/01/30 10:07:16;;;;;;;6.03;2.10;;;7.60;95.60;;;;;;9957325;28;20034;-70
2022/01/30 10:12:19;;;;;;;11.57;3.30;;;7.80;95.60;;;;;;9956105;28;20129;-66
2022/01/30 10:17:31;;;;;;;6.25;2.03;;;7.90;95.50;;;;;;9965749;28;20529;-66
2022/01/30 10:22:21;;;;;;;9.32;2.92;;;7.90;95.20;;;;;;9961997;28;20062;-66
2022/01/30 10:27:26;;;;;;;9.85;3.10;;;8.10;95.10;;;;;;9960985;28;20485;-66
2022/01/30 10:32:17;;;;;;;7.75;2.45;;;8.20;94.90;;;;;;9964506;28;20500;-68
2022/01/30 10:37:11;;;;;;;10.27;2.83;;;8.50;94.60;;;;;;9966611;28;20093;-66
2022/01/30 10:42:02;;;;;;;4.70;1.67;;;8.40;94.50;;;;;;9965903;28;20369;-67
2022/01/30 10:46:53;;;;;;;6.78;3.33;;;8.20;94.20;;;;;;9964449;28;20027;-67
2022/01/30 10:51:53;;;;;;;6.63;3.00;;;8.10;93.90;;;;;;9963242;28;20031;-64
2022/01/30 10:56:44;;;;;;;12.43;3.17;;;8.20;93.70;;;;;;9963110;28;20572;-65
2022/01/30 11:01:35;;;;;;;6.65;2.60;;;8.20;93.30;;;;;;9968464;28;20030;-65
2022/01/30 11:06:28;;;;;;;19.33;4.20;;;8.30;92.90;;;;;;9964954;28;20130;-68
2022/01/30 11:21:24;;;;;;;9.18;1.63;;;8.30;91.90;;;;;;9970211;28;20066;-64
2022/01/30 11:26:15;;;;;;;9.13;2.25;;;8.30;91.60;;;;;;9972057;28;20046;-68
2022/01/30 11:31:06;;;;;;;6.32;2.10;;;8.40;91.00;;;;;;9973594;28;20069;-63
2022/01/30 11:35:58;;;;;;;7.60;1.95;;;8.40;90.40;;;;;;9971206;28;20076;-67
2022/01/30 11:41:19;;;;;;;3.92;1.85;;;8.50;90.70;;;;;;9969325;28;20030;-64
2022/01/30 11:46:15;;;;;;;6.65;2.80;;;8.50;89.70;;;;;;9956371;28;20053;-68
2022/01/30 11:51:06;;;;;;;3.88;2.03;;;8.50;90.00;;;;;;9975182;28;20023;-68
2022/01/30 11:56:02;;;;;;;8.30;2.25;;;8.50;89.60;;;;;;9965715;28;20034;-67
2022/01/30 12:00:52;;;;;;;5.57;1.70;;;8.60;89.50;;;;;;9969919;28;20481;-64
2022/01/30 12:05:43;;;;;;;7.82;2.40;;;8.90;88.90;;;;;;9974260;28;20030;-71
2022/01/30 12:10:34;;;;;;;10.25;2.50;;;9.00;88.90;;;;;;9966530;28;20457;-65
2022/01/30 12:15:47;;;;;;;10.63;3.42;;;9.00;88.40;;;;;;9965295;28;20148;-64
2022/01/30 12:20:57;;;;;;;5.50;3.13;;;8.90;88.40;;;;;;9963149;28;20451;-63
2022/01/30 12:25:53;;;;;;;5.35;1.98;;;9.00;88.40;;;;;;9967885;28;20563;-64
2022/01/30 12:30:47;;;;;;;4.15;1.80;;;9.00;88.30;;;;;;9970745;28;20050;-64
2022/01/30 12:35:44;;;;;;;11.88;4.18;;;9.10;88.80;;;;;;9967547;28;20027;-66
2022/01/30 12:40:35;;;;;;;5.75;1.95;;;9.40;87.70;;;;;;9969623;28;20538;-64
2022/01/30 12:45:25;;;;;;;6.82;2.13;;;9.60;87.10;;;;;;9969294;28;20112;-67
2022/01/30 12:50:18;;;;;;;5.38;2.25;;;9.70;86.30;;;;;;9969026;28;20184;-68
2022/01/30 12:55:11;;;;;;;10.48;3.38;;;9.30;86.30;;;;;;9971357;28;20054;-67
2022/01/30 13:00:06;;;;;;;10.07;1.75;;;9.00;86.70;;;;;;9966559;28;20030;-66
2022/01/30 13:05:04;;;;;;;3.38;1.55;;;9.10;86.20;;;;;;9963635;28;20041;-68
2022/01/30 13:10:08;;;;;;;5.68;1.65;;;9.10;86.30;;;;;;9965498;28;20081;-63
2022/01/30 13:15:04;;;;;;;5.45;1.88;;;9.10;85.80;;;;;;9965126;28;20125;-64
2022/01/30 13:19:55;;;;;;;7.00;1.98;;;9.20;85.60;;;;;;9950324;28;20045;-64
2022/01/30 13:24:54;;;;;;;3.38;1.80;;;9.30;85.90;;;;;;9966844;28;20509;-69
2022/01/30 13:29:45;;;;;;;3.80;2.25;;;9.40;85.40;;;;;;9963958;28;20552;-70
2022/01/30 13:34:36;;;;;;;6.45;2.35;;;9.50;85.40;;;;;;9966033;28;20030;-66
2022/01/30 13:44:52;;;;;;;10.15;2.42;;;9.40;85.00;;;;;;9951457;28;20271;-66
2022/01/30 13:49:44;;;;;;;5.47;1.63;;;9.40;84.80;;;;;;9965746;28;20125;-63
2022/01/30 13:54:37;;;;;;;6.82;2.88;;;9.30;84.40;;;;;;9946356;28;20270;-63
2022/01/30 13:59:28;;;;;;;9.43;3.72;;;9.30;84.50;;;;;;9964335;28;20107;-68
2022/01/30 14:04:22;;;;;;;4.55;1.80;;;9.30;84.60;;;;;;9969353;28;20425;-67
2022/01/30 14:09:19;;;;;;;8.48;2.83;;;9.20;84.60;;;;;;9966630;28;20460;-65
2022/01/30 14:14:13;;;;;;;6.88;1.65;;;9.30;84.50;;;;;;9948694;28;20057;-65
2022/01/30 14:19:16;;;;;;;8.27;2.13;;;9.30;84.30;;;;;;9966479;28;20200;-65
2022/01/30 14:24:24;;;;;;;4.82;1.73;;;9.30;84.10;;;;;;9967337;28;20035;-64
2022/01/30 14:29:20;;;;;;;7.40;1.98;;;9.20;83.90;;;;;;9964241;28;20050;-66
2022/01/30 14:34:11;;;;;;;5.15;2.75;;;8.90;83.70;;;;;;9950540;28;20396;-64
2022/01/30 14:39:01;;;;;;;5.65;2.03;;;8.70;84.10;;;;;;9968311;28;20030;-65
2022/01/30 14:43:52;;;;;;;6.55;2.60;;;8.80;83.80;;;;;;9961573;28;20030;-67
2022/01/30 14:48:44;;;;;;;6.75;1.75;;;8.80;83.70;;;;;;9967471;28;20026;-67
2022/01/30 14:53:34;;;;;;;8.95;1.85;;;8.80;83.60;;;;;;9967664;28;20963;-67
2022/01/30 14:58:25;;;;;;;4.18;1.63;;;8.90;83.40;;;;;;9974355;28;20111;-64
2022/01/30 15:03:15;;;;;;;5.72;1.98;;;9.00;83.40;;;;;;9968496;28;20042;-65
2022/01/30 15:08:06;;;;;;;4.97;1.70;;;8.80;83.20;;;;;;9955417;28;20512;-65
2022/01/30 15:12:57;;;;;;;5.18;1.88;;;8.70;83.50;;;;;;9958729;28;20026;-64
2022/01/30 15:17:51;;;;;;;3.85;1.35;;;8.60;83.50;;;;;;9971732;28;20041;-64
2022/01/30 15:22:44;;;;;;;8.00;2.00;;;8.50;83.30;;;;;;9968574;28;20034;-65
2022/01/30 15:27:36;;;;;;;4.65;1.52;;;8.40;83.10;;;;;;9955585;28;20054;-66
2022/01/30 15:32:27;;;;;;;3.92;1.45;;;8.40;83.30;;;;;;9972582;28;20503;-64
2022/01/30 15:37:17;;;;;;;2.72;1.85;;;8.30;83.20;;;;;;9973657;28;20042;-65
2022/01/30 15:42:09;;;;;;;3.42;2.45;;;8.20;83.40;;;;;;9970731;28;20035;-64
2022/01/30 15:52:09;;;;;;;4.63;1.73;;;8.10;83.30;;;;;;9955396;28;20048;-67
2022/01/30 15:57:00;;;;;;;5.63;1.95;;;8.10;83.40;;;;;;9952128;28;20523;-65
2022/01/30 16:01:51;;;;;;;2.67;1.58;;;8.00;83.20;;;;;;9975100;28;20041;-65
2022/01/30 16:06:43;;;;;;;9.52;2.22;;;8.00;83.30;;;;;;9970511;28;20042;-63
2022/01/30 16:12:12;;;;;;;4.15;1.27;;;8.00;83.20;;;;;;9968206;28;20029;-64
2022/01/30 16:16:54;;;;;;;5.22;1.73;;;7.90;83.40;;;;;;9967339;28;20127;-64
2022/01/30 16:21:45;;;;;;;7.88;1.98;;;7.70;83.60;;;;;;9970109;28;20394;-63
2022/01/30 16:26:36;;;;;;;1.88;1.15;;;7.60;83.50;;;;;;9971588;28;20571;-66
2022/01/30 16:31:27;;;;;;;5.82;2.10;;;7.60;83.60;;;;;;9968177;28;20034;-64
2022/01/30 16:36:17;;;;;;;9.73;3.92;;;7.50;83.60;;;;;;9963071;28;20093;-69
2022/01/30 16:41:08;;;;;;;9.77;2.67;;;7.40;83.60;;;;;;9970366;28;20238;-70
2022/01/30 16:46:09;;;;;;;3.20;1.58;;;7.40;83.80;;;;;;9955821;28;20041;-66
2022/01/30 16:51:00;;;;;;;3.25;1.60;;;7.30;83.90;;;;;;9983055;28;20030;-61
2022/01/30 16:55:51;;;;;;;6.38;2.20;;;7.20;84.00;;;;;;9986541;28;20040;-67
2022/01/30 17:00:42;;;;;;;4.43;2.25;;;7.20;84.10;;;;;;9978216;28;20439;-62
2022/01/30 17:05:32;;;;;;;7.38;3.63;;;7.20;84.10;;;;;;9961996;28;20481;-67
2022/01/30 17:10:25;;;;;;;6.80;2.33;;;7.20;84.10;;;;;;9985859;28;20029;-63
2022/01/30 17:15:15;;;;;;;6.18;2.40;;;7.20;84.30;;;;;;9959273;28;20038;-64
2022/01/30 17:20:07;;;;;;;4.03;2.58;;;7.10;84.30;;;;;;9979336;28;20034;-64
2022/01/30 17:24:57;;;;;;;8.45;3.05;;;7.00;84.40;;;;;;9977458;28;20079;-65
2022/01/30 17:29:48;;;;;;;9.13;2.70;;;7.00;84.70;;;;;;9974914;28;20043;-65
2022/01/30 17:34:39;;;;;;;5.97;2.55;;;7.10;84.50;;;;;;9972145;28;20056;-71
2022/01/30 17:39:31;;;;;;;6.80;2.40;;;7.00;84.70;;;;;;9980990;28;20035;-68
2022/01/30 17:44:22;;;;;;;6.78;2.30;;;6.90;85.00;;;;;;9957136;28;20041;-71
2022/01/30 17:49:13;;;;;;;11.00;2.38;;;6.80;85.20;;;;;;9982340;28;20044;-68
2022/01/30 17:54:04;;;;;;;6.45;2.28;;;6.70;85.30;;;;;;9964191;28;20158;-68
2022/01/30 17:59:01;;;;;;;7.88;2.70;;;6.70;85.40;;;;;;9978196;28;20501;-78
2022/01/30 18:03:51;;;;;;;7.35;2.28;;;6.70;85.40;;;;;;9952699;28;20034;-76
2022/01/30 18:08:48;;;;;;;5.78;2.08;;;6.70;85.40;;;;;;9967494;28;20045;-77
2022/01/30 18:13:39;;;;;;;6.40;2.03;;;6.60;85.40;;;;;;9982129;28;20022;-77
2022/01/30 18:18:29;;;;;;;7.70;2.42;;;6.60;85.50;;;;;;9981928;28;20477;-75
2022/01/30 18:23:20;;;;;;;5.85;2.38;;;6.50;85.50;;;;;;9965304;28;20039;-76
2022/01/30 18:28:12;;;;;;;5.53;2.35;;;6.50;85.70;;;;;;9982953;28;20053;-74
2022/01/30 18:33:04;;;;;;;9.20;2.92;;;6.40;85.80;;;;;;9970740;28;20034;-76
2022/01/30 18:37:58;;;;;;;4.43;3.20;;;6.40;86.10;;;;;;9968578;28;20041;-79
2022/01/30 18:42:50;;;;;;;8.25;3.78;;;6.30;86.00;;;;;;9987600;28;20018;-74
2022/01/30 18:47:41;;;;;;;5.65;2.72;;;6.30;86.20;;;;;;9981535;28;20038;-73
2022/01/30 18:52:32;;;;;;;5.78;2.85;;;6.20;86.30;;;;;;9967420;28;20185;-77
2022/01/30 18:57:23;;;;;;;5.10;2.65;;;6.20;86.30;;;;;;9939798;28;20041;-73
2022/01/30 19:02:14;;;;;;;6.97;2.55;;;6.20;86.20;;;;;;9967293;28;20069;-71
2022/01/30 19:07:04;;;;;;;4.60;2.35;;;6.10;86.40;;;;;;9973161;28;20061;-70
2022/01/30 19:11:55;;;;;;;9.35;2.67;;;6.10;86.50;;;;;;9975333;28;20042;-71
2022/01/30 19:16:46;;;;;;;6.15;2.95;;;6.10;86.60;;;;;;9964041;28;20402;-73
2022/01/30 19:21:39;;;;;;;9.38;3.35;;;6.10;86.60;;;;;;9966489;28;20065;-74
2022/01/30 19:26:30;;;;;;;14.93;4.47;;;6.00;86.70;;;;;;9974371;28;20559;-76
2022/01/30 19:31:26;;;;;;;9.77;4.35;;;5.90;86.80;;;;;;9951257;28;20120;-75
2022/01/30 19:36:17;;;;;;;10.98;4.18;;;5.90;87.00;;;;;;9949433;28;20429;-75
2022/01/30 19:41:09;;;;;;;8.48;3.75;;;5.80;87.10;;;;;;9977463;28;20038;-75
2022/01/30 19:46:02;;;;;;;10.13;4.35;;;5.70;87.30;;;;;;9979410;28;20046;-75
2022/01/30 19:50:54;;;;;;;6.18;3.45;;;5.70;87.30;;;;;;9987742;28;20116;-73
2022/01/30 19:55:45;;;;;;;7.47;3.40;;;5.60;87.40;;;;;;9983948;28;20041;-74
2022/01/30 20:00:39;;;;;;;11.40;3.47;;;5.60;87.50;;;;;;9954358;28;20126;-76
2022/01/30 20:05:30;;;;;;;6.32;3.50;;;5.60;87.50;;;;;;9972832;28;20065;-71
2022/01/30 20:10:21;;;;;;;12.38;5.03;;;5.40;87.60;;;;;;9976786;28;20033;-69
2022/01/30 20:15:12;;;;;;;9.57;5.43;;;5.60;88.20;;;;;;9975101;28;20033;-69
2022/01/30 20:20:04;;;;;;;10.23;4.45;;;5.40;88.90;;;;;;9975476;28;20030;-69
2022/01/30 20:24:55;;;;;;;12.68;5.60;;;5.40;88.50;;;;;;9941803;28;20569;-70
2022/01/30 20:29:46;;;;;;;8.95;5.03;;;5.30;88.70;;;;;;9982281;28;20096;-70
2022/01/30 20:34:40;;;;;;;10.50;4.50;;;5.10;88.90;;;;;;9970521;28;20038;-69
2022/01/30 20:39:32;;;;;;;16.05;4.65;;;5.20;88.90;;;;;;9983653;28;20453;-68
2022/01/30 20:44:23;;;;;;;10.02;5.85;;;5.10;88.90;;;;;;9965656;28;20027;-70
2022/01/30 20:49:13;;;;;;;12.75;5.18;;;5.10;89.10;;;;;;9962485;28;20026;-69
2022/01/30 20:54:05;;;;;;;11.80;5.82;;;5.10;89.20;;;;;;9977869;28;20364;-68
2022/01/30 20:58:56;;;;;;;12.52;5.88;;;4.90;89.40;;;;;;9954145;28;20398;-69
2022/01/30 21:03:47;;;;;;;15.32;6.68;;;5.00;89.50;;;;;;9957505;28;20756;-68
2022/01/30 21:08:39;;;;;;;13.77;7.38;;;4.90;89.70;;;;;;9950125;28;20118;-69
2022/01/30 21:13:32;;;;;;;14.10;5.70;;;4.90;89.70;;;;;;9978870;28;20038;-72
2022/01/30 21:18:23;;;;;;;12.95;5.50;;;4.80;89.70;;;;;;9977165;28;20037;-70
2022/01/30 21:23:14;;;;;;;9.48;5.03;;;4.80;90.00;;;;;;9978610;28;20042;-70
2022/01/30 21:28:06;;;;;;;10.70;4.80;;;4.80;90.00;;;;;;9972806;28;20501;-69
2022/01/30 21:32:56;;;;;;;7.70;4.38;;;4.70;90.10;;;;;;9968482;28;20022;-70
2022/01/30 21:37:47;;;;;;;12.32;4.68;;;4.80;90.10;;;;;;9972765;28;20049;-70
2022/01/30 21:42:38;;;;;;;8.32;4.38;;;4.70;90.20;;;;;;9966978;28;20033;-71
2022/01/30 21:47:31;;;;;;;15.77;4.88;;;4.50;90.30;;;;;;9970484;28;20073;-69
2022/01/30 21:52:25;;;;;;;9.07;4.28;;;4.30;90.60;;;;;;9949328;28;20089;-70
2022/01/30 21:57:16;;;;;;;13.10;4.97;;;4.20;90.70;;;;;;9938600;28;20080;-70
2022/01/30 22:02:07;;;;;;;12.20;4.78;;;4.20;90.70;;;;;;9952235;28;20027;-70
2022/01/30 22:06:58;;;;;;;8.80;3.55;;;4.10;90.70;;;;;;9962573;28;20512;-70
2022/01/30 22:11:50;;;;;;;8.88;3.80;;;4.10;90.80;;;;;;9953279;28;20023;-70
2022/01/30 22:16:47;;;;;;;8.77;4.63;;;4.20;90.90;;;;;;9953809;28;20108;-69
2022/01/30 22:21:37;;;;;;;15.18;5.70;;;4.20;90.90;;;;;;9947792;28;20098;-70
2022/01/30 22:26:28;;;;;;;7.78;4.78;;;4.30;91.00;;;;;;9969940;28;20146;-70
2022/01/30 22:31:19;;;;;;;9.65;5.03;;;4.30;91.10;;;;;;9955178;28;20030;-70
2022/01/30 22:36:09;;;;;;;6.60;4.55;;;4.30;91.20;;;;;;9937536;28;20030;-71
2022/01/30 22:41:00;;;;;;;9.85;4.97;;;4.30;91.20;;;;;;9956830;28;20037;-72
2022/01/30 22:45:51;;;;;;;11.40;6.32;;;4.30;91.30;;;;;;9972098;28;20023;-72
2022/01/30 22:50:42;;;;;;;12.50;6.65;;;4.10;91.50;;;;;;9968266;28;20168;-72
2022/01/30 22:55:33;;;;;;;12.43;5.97;;;4.10;91.60;;;;;;9969748;28;20652;-70
2022/01/30 23:00:27;;;;;;;13.18;6.13;;;4.20;91.50;;;;;;9958215;28;20470;-70
2022/01/30 23:05:18;;;;;;;12.27;5.82;;;4.20;91.60;;;;;;9975625;28;20475;-70
2022/01/30 23:10:09;;;;;;;13.63;6.55;;;4.30;91.50;;;;;;9983625;28;20117;-71
2022/01/30 23:15:00;;;;;;;15.00;7.28;;;4.20;91.60;;;;;;9976557;28;20030;-71
2022/01/30 23:19:53;;;;;;;14.07;5.47;;;4.20;91.50;;;;;;9969456;28;20034;-72
2022/01/30 23:24:43;;;;;;;11.52;5.18;;;4.10;91.60;;;;;;9978475;28;20478;-70
2022/01/30 23:29:34;;;;;;;11.88;5.57;;;4.20;91.60;;;;;;9968259;28;20046;-71
2022/01/30 23:34:25;;;;;;;7.65;4.82;;;4.40;91.70;;;;;;9976779;28;20026;-71
2022/01/30 23:39:15;;;;;;;11.02;5.20;;;4.30;91.60;;;;;;9981975;28;20226;-71
2022/01/30 23:44:08;;;;;;;8.48;5.28;;;4.30;91.70;;;;;;9983405;28;20420;-71
2022/01/30 23:49:00;;;;;;;7.68;5.10;;;4.20;91.70;;;;;;9980425;28;20546;-70
2022/01/30 23:53:51;;;;;;;9.45;4.43;;;4.10;91.70;;;;;;9973192;28;20304;-71
2022/01/30 23:58:42;;;;;;;9.02;4.60;;;4.20;91.70;;;;;;9970364;28;20483;-73
